Time;durP1;ratioP1;P1;durP2;ratioP2;P2;SDS_P1;SDS_P2;PMS_P1;PMS_P2;Temp;Humidity;BMP_temperature;BMP_pressure;BME280_temperature;BME280_humidity;BME280_pressure;Samples;Min_cycle;Max_cycle;Signal;HPM_P1;HPM_P2
2021/09/12 00:02:21;;;;;;;24.00;9.57;;;;;;;19.52;100.00;101103.22;5031501;28;21037;-75
2021/09/12 00:04:47;;;;;;;15.63;8.40;;;;;;;19.53;100.00;101098.72;5034683;28;20181;-76
2021/09/12 00:07:13;;;;;;;14.83;7.90;;;;;;;19.48;100.00;101104.50;5029878;28;20181;-72
2021/09/12 00:09:38;;;;;;;17.43;8.90;;;;;;;19.42;100.00;101102.44;5030774;28;20416;-73
2021/09/12 00:12:04;;;;;;;18.50;8.00;;;;;;;19.31;100.00;101100.84;5030112;28;20165;-73
2021/09/12 00:14:30;;;;;;;19.23;9.37;;;;;;;19.26;100.00;101097.75;5049248;28;20161;-75
2021/09/12 00:16:55;;;;;;;18.70;8.87;;;;;;;19.24;100.00;101101.59;5036885;28;20946;-72
2021/09/12 00:19:21;;;;;;;18.93;8.20;;;;;;;19.17;100.00;101092.50;5030021;28;20225;-75
2021/09/12 00:21:47;;;;;;;19.17;8.23;;;;;;;19.16;100.00;101094.34;5030314;28;20185;-77
2021/09/12 00:24:12;;;;;;;19.33;9.90;;;;;;;19.12;100.00;101093.81;5029258;28;20173;-72
2021/09/12 00:26:38;;;;;;;17.43;8.93;;;;;;;19.07;100.00;101093.41;5030226;28;20165;-75
2021/09/12 00:29:04;;;;;;;22.90;10.10;;;;;;;19.05;100.00;101087.41;5030900;28;20236;-74
2021/09/12 00:31:29;;;;;;;22.93;10.53;;;;;;;19.07;100.00;101085.41;5030405;28;20166;-75
2021/09/12 00:33:55;;;;;;;18.97;9.20;;;;;;;19.07;100.00;101093.41;5037604;28;20773;-76
2021/09/12 00:36:20;;;;;;;23.80;11.20;;;;;;;19.07;100.00;101087.25;5032758;28;20181;-73
2021/09/12 00:38:46;;;;;;;17.50;10.30;;;;;;;19.05;100.00;101086.56;5030730;28;20221;-74
2021/09/12 00:41:11;;;;;;;18.20;9.93;;;;;;;19.04;100.00;101088.38;5031128;28;20170;-74
2021/09/12 00:43:38;;;;;;;21.53;11.20;;;;;;;19.09;100.00;101082.59;5030783;28;20244;-73
2021/09/12 00:46:07;;;;;;;26.83;11.77;;;;;;;19.09;100.00;101078.09;5030175;28;20229;-75
2021/09/12 00:48:34;;;;;;;30.13;11.50;;;;;;;19.07;100.00;101074.75;5029453;28;20432;-74
2021/09/12 00:51:00;;;;;;;16.70;9.20;;;;;;;19.07;100.00;101079.25;5030028;28;20421;-72
2021/09/12 00:53:30;;;;;;;22.73;9.40;;;;;;;19.05;100.00;101082.06;5029697;28;20412;-73
2021/09/12 00:56:00;;;;;;;28.03;10.70;;;;;;;19.03;100.00;101083.19;5030135;28;20243;-75
2021/09/12 00:58:27;;;;;;;27.07;11.10;;;;;;;19.00;100.00;101083.50;5026580;28;20468;-73
2021/09/12 01:00:53;;;;;;;20.67;9.73;;;;;;;18.97;100.00;101079.31;5029252;28;20444;-75
2021/09/12 01:03:19;;;;;;;20.37;8.80;;;;;;;18.96;100.00;101079.44;5029920;28;20443;-74
2021/09/12 01:05:44;;;;;;;16.40;9.20;;;;;;;18.92;100.00;101080.75;5029796;28;20432;-75
2021/09/12 01:08:10;;;;;;;18.10;8.87;;;;;;;18.92;100.00;101083.41;5030657;28;20232;-73
2021/09/12 01:10:37;;;;;;;16.70;9.07;;;;;;;18.92;100.00;101083.41;5030307;28;20170;-77
2021/09/12 01:13:04;;;;;;;21.23;9.17;;;;;;;18.90;100.00;101086.22;5029489;28;20229;-74
2021/09/12 01:15:30;;;;;;;14.40;9.40;;;;;;;18.92;100.00;101094.06;5027455;28;20934;-75
2021/09/12 01:17:56;;;;;;;20.57;9.00;;;;;;;18.96;100.00;101093.59;5029914;28;20446;-76
2021/09/12 01:20:22;;;;;;;17.00;9.03;;;;;;;18.96;100.00;101100.75;5029730;28;20417;-76
2021/09/12 01:22:48;;;;;;;22.60;8.47;;;;;;;18.92;100.00;101094.06;5029564;28;20542;-73
2021/09/12 01:25:14;;;;;;;17.23;9.30;;;;;;;18.90;100.00;101096.88;5029873;28;20314;-75
2021/09/12 01:27:39;;;;;;;17.30;8.90;;;;;;;18.88;100.00;101097.97;5030969;28;21041;-74
2021/09/12 01:30:05;;;;;;;15.43;9.80;;;;;;;18.82;100.00;101094.09;5030100;28;20166;-77
2021/09/12 01:32:31;;;;;;;20.73;8.13;;;;;;;18.78;100.00;101106.88;5031033;28;20703;-76
2021/09/12 01:34:56;;;;;;;15.77;9.00;;;;;;;18.85;100.00;101105.28;5031238;28;20420;-74
2021/09/12 01:37:22;;;;;;;18.60;8.60;;;;;;;18.74;100.00;101116.13;5031565;28;20196;-75
2021/09/12 01:39:47;;;;;;;18.07;9.43;;;;;;;18.72;100.00;101104.78;5029827;28;20177;-74
2021/09/12 01:42:13;;;;;;;29.43;8.93;;;;;;;18.68;100.00;101108.72;5030791;28;20169;-73
2021/09/12 01:44:45;;;;;;;14.70;8.47;;;;;;;18.69;100.00;101109.56;5030679;28;20639;-75
2021/09/12 01:47:10;;;;;;;15.60;8.70;;;;;;;18.65;100.00;101102.81;5029689;28;20279;-75
2021/09/12 01:49:35;;;;;;;13.53;8.60;;;;;;;18.64;100.00;101101.97;5029729;28;20913;-75
2021/09/12 01:52:01;;;;;;;32.37;10.00;;;;;;;18.65;100.00;101100.16;5029994;28;20188;-76
2021/09/12 01:54:26;;;;;;;14.93;8.33;;;;;;;18.68;100.00;101097.25;5030011;28;20217;-75
2021/09/12 01:56:52;;;;;;;21.13;8.90;;;;;;;18.65;100.00;101090.34;5030866;28;20554;-77
2021/09/12 01:59:17;;;;;;;18.10;9.50;;;;;;;18.65;100.00;101100.16;5030016;28;20216;-73
2021/09/12 02:01:43;;;;;;;12.97;7.90;;;;;;;18.66;100.00;101089.38;5030612;28;20177;-77
2021/09/12 02:04:08;;;;;;;16.10;8.43;;;;;;;18.69;100.00;101094.44;5031058;28;20161;-76
2021/09/12 02:06:34;;;;;;;21.87;8.97;;;;;;;18.69;100.00;101089.09;5030375;28;20177;-73
2021/09/12 02:08:59;;;;;;;11.50;8.53;;;;;;;18.66;100.00;101099.19;5029614;28;20166;-77
2021/09/12 02:11:25;;;;;;;21.97;9.37;;;;;;;18.63;100.00;101096.81;5030226;28;20182;-74
2021/09/12 02:13:50;;;;;;;17.10;8.63;;;;;;;18.56;100.00;101094.72;5028454;28;20779;-76
2021/09/12 02:16:17;;;;;;;17.70;8.37;;;;;;;18.54;100.00;101087.88;5028423;28;20220;-74
2021/09/12 02:18:42;;;;;;;16.70;8.70;;;;;;;18.50;100.00;101089.97;5029310;28;20663;-75
2021/09/12 02:21:08;;;;;;;11.17;8.13;;;;;;;18.45;100.00;101089.59;5029980;28;20416;-77
2021/09/12 02:23:34;;;;;;;14.30;8.57;;;;;;;18.37;100.00;101094.78;5029096;28;20795;-75
2021/09/12 02:25:59;;;;;;;20.70;8.30;;;;;;;18.36;100.00;101094.91;5028067;28;20188;-75
2021/09/12 02:28:24;;;;;;;14.20;8.00;;;;;;;18.32;100.00;101104.19;5029151;28;20993;-76
2021/09/12 02:30:50;;;;;;;20.67;11.40;;;;;;;18.25;100.00;101104.75;5028878;28;20173;-76
2021/09/12 02:33:15;;;;;;;20.83;12.00;;;;;;;18.28;100.00;101101.78;5028967;28;20267;-76
2021/09/12 02:35:41;;;;;;;19.50;12.03;;;;;;;18.30;100.00;101105.16;5029195;28;20260;-75
2021/09/12 02:38:06;;;;;;;12.90;10.57;;;;;;;18.30;100.00;101099.84;5028146;28;20200;-72
2021/09/12 02:40:32;;;;;;;16.60;10.23;;;;;;;18.36;100.00;101102.91;5037334;28;20198;-79
2021/09/12 02:42:57;;;;;;;19.03;10.20;;;;;;;18.31;100.00;101100.69;5037687;28;20196;-75
2021/09/12 02:45:23;;;;;;;14.20;8.70;;;;;;;18.33;100.00;101101.38;5031175;28;20181;-77
2021/09/12 02:47:48;;;;;;;21.10;9.80;;;;;;;18.35;100.00;101099.41;5029860;28;20215;-78
2021/09/12 02:50:14;;;;;;;13.00;9.10;;;;;;;18.28;100.00;101100.97;5030742;28;20158;-76
2021/09/12 02:52:39;;;;;;;13.57;8.30;;;;;;;18.24;100.00;101102.25;5030818;28;20162;-77
2021/09/12 02:55:06;;;;;;;21.73;8.43;;;;;;;18.19;100.00;101093.84;5031221;28;20181;-74
2021/09/12 02:57:31;;;;;;;14.20;8.90;;;;;;;18.17;100.00;101098.47;5030438;28;20685;-77
2021/09/12 02:59:58;;;;;;;19.13;9.30;;;;;;;18.18;100.00;101100.16;5031257;28;20507;-77
2021/09/12 03:02:24;;;;;;;20.23;8.10;;;;;;;18.16;100.00;101104.78;5030790;28;20544;-73
2021/09/12 03:04:50;;;;;;;17.07;8.83;;;;;;;18.22;100.00;101104.22;5029660;28;20926;-77
2021/09/12 03:07:15;;;;;;;29.03;9.67;;;;;;;18.25;100.00;101101.25;5031092;28;20667;-76
2021/09/12 03:09:41;;;;;;;20.07;9.10;;;;;;;18.26;100.00;101102.94;5030479;28;20186;-74
2021/09/12 03:12:06;;;;;;;15.37;8.77;;;;;;;18.29;100.00;101100.00;5030940;28;20197;-76
2021/09/12 03:14:32;;;;;;;20.83;9.23;;;;;;;18.35;100.00;101102.06;5030914;28;20170;-74
2021/09/12 03:16:58;;;;;;;16.77;9.37;;;;;;;18.37;100.00;101099.28;5033184;28;20249;-74
2021/09/12 03:19:23;;;;;;;14.83;9.43;;;;;;;18.35;100.00;101103.88;5034801;28;20196;-77
2021/09/12 03:21:49;;;;;;;14.80;9.23;;;;;;;18.38;100.00;101103.63;5030846;28;20407;-75
2021/09/12 03:24:14;;;;;;;20.03;10.57;;;;;;;18.47;100.00;101100.91;5031451;28;20178;-77
2021/09/12 03:26:40;;;;;;;19.67;9.00;;;;;;;18.42;100.00;101105.00;5031108;28;20173;-73
2021/09/12 03:29:05;;;;;;;20.20;10.10;;;;;;;18.41;100.00;101098.00;5037892;28;20316;-78
2021/09/12 03:31:31;;;;;;;19.90;9.97;;;;;;;18.43;100.00;101098.69;5035767;28;20215;-79
2021/09/12 03:33:56;;;;;;;23.93;10.23;;;;;;;18.42;100.00;101102.31;5034589;28;20719;-74
2021/09/12 03:36:22;;;;;;;21.57;10.67;;;;;;;18.44;100.00;101103.88;5035939;28;20169;-77
2021/09/12 03:38:47;;;;;;;23.27;10.20;;;;;;;18.43;100.00;101104.84;5034592;28;20189;-76
2021/09/12 03:41:13;;;;;;;15.63;10.27;;;;;;;18.42;100.00;101105.81;5034351;28;20198;-76
2021/09/12 03:43:38;;;;;;;17.23;9.93;;;;;;;18.42;100.00;101112.97;5034553;28;20162;-76
2021/09/12 03:46:04;;;;;;;24.30;12.23;;;;;;;18.42;100.00;101107.66;5034087;28;20252;-77
2021/09/12 03:48:31;;;;;;;18.70;11.90;;;;;;;18.36;100.00;101114.38;5034650;28;20169;-77
2021/09/12 03:50:56;;;;;;;19.17;10.33;;;;;;;18.34;100.00;101113.69;5034015;28;20204;-77
2021/09/12 03:53:22;;;;;;;15.63;10.90;;;;;;;18.32;100.00;101118.31;5033995;28;20526;-75
2021/09/12 03:55:48;;;;;;;19.87;12.17;;;;;;;18.30;100.00;101113.16;5033940;28;20174;-74
2021/09/12 03:58:14;;;;;;;15.60;11.30;;;;;;;18.36;100.00;101125.03;5040352;28;20462;-76
2021/09/12 04:00:39;;;;;;;15.43;10.53;;;;;;;18.42;100.00;101128.94;5034483;28;20178;-77
2021/09/12 04:03:05;;;;;;;28.10;12.30;;;;;;;18.36;100.00;101130.34;5033901;28;20173;-78
2021/09/12 04:05:31;;;;;;;20.13;10.80;;;;;;;18.46;100.00;101133.84;5032651;28;20618;-76
2021/09/12 04:07:56;;;;;;;21.23;10.80;;;;;;;18.48;100.00;101134.53;5033556;28;20231;-76
2021/09/12 04:10:23;;;;;;;20.80;11.10;;;;;;;18.44;100.00;101143.78;5033173;28;20842;-76
2021/09/12 04:12:48;;;;;;;18.47;10.83;;;;;;;18.40;100.00;101142.38;5033634;28;20594;-78
2021/09/12 04:15:14;;;;;;;17.30;11.53;;;;;;;18.40;100.00;101142.38;5033249;28;20934;-78
2021/09/12 04:17:39;;;;;;;22.17;11.33;;;;;;;18.40;100.00;101139.72;5043343;28;20154;-78
2021/09/12 04:20:06;;;;;;;15.37;10.00;;;;;;;18.41;100.00;101144.06;5032832;28;20166;-79
2021/09/12 04:22:32;;;;;;;14.00;11.37;;;;;;;18.40;100.00;101147.72;5034048;28;20170;-77
2021/09/12 04:24:58;;;;;;;19.03;10.90;;;;;;;18.43;100.00;101141.25;5033979;28;20415;-74
2021/09/12 04:27:23;;;;;;;19.63;10.83;;;;;;;18.46;100.00;101155.13;5034032;28;20416;-77
2021/09/12 04:29:49;;;;;;;12.43;9.40;;;;;;;18.51;100.00;101149.34;5034613;28;20166;-76
2021/09/12 04:32:14;;;;;;;17.67;10.20;;;;;;;18.60;100.00;101153.00;5034277;28;20181;-78
2021/09/12 04:34:40;;;;;;;17.97;10.03;;;;;;;18.70;100.00;101151.19;5041330;28;20173;-75
2021/09/12 04:37:06;;;;;;;13.87;9.73;;;;;;;18.82;100.00;101158.00;5042715;28;20260;-79
2021/09/12 04:39:31;;;;;;;18.23;9.93;;;;;;;18.88;100.00;101153.91;5033888;28;20186;-78
2021/09/12 04:41:57;;;;;;;15.50;10.10;;;;;;;18.97;100.00;101155.72;5033478;28;20165;-78
2021/09/12 04:44:22;;;;;;;20.37;10.80;;;;;;;18.97;100.00;101156.56;5032791;28;20177;-78
2021/09/12 04:46:47;;;;;;;15.20;9.60;;;;;;;19.10;100.00;101151.69;5033209;28;20162;-79
2021/09/12 04:49:13;;;;;;;18.73;10.40;;;;;;;19.18;100.00;101150.97;5031950;28;20170;-79
2021/09/12 04:51:39;;;;;;;19.93;10.17;;;;;;;19.21;100.00;101152.50;5034499;28;20168;-80
2021/09/12 04:54:05;;;;;;;19.57;10.97;;;;;;;19.29;100.00;101157.94;5033319;28;20436;-79
2021/09/12 04:56:30;;;;;;;17.63;9.13;;;;;;;19.30;100.00;101155.13;5033868;28;20196;-76
2021/09/12 04:58:56;;;;;;;16.43;10.30;;;;;;;19.38;100.00;101157.88;5033416;28;20196;-77
2021/09/12 05:01:21;;;;;;;14.30;10.10;;;;;;;19.56;100.00;101157.06;5033155;28;20158;-78
2021/09/12 05:03:47;;;;;;;14.07;11.03;;;;;;;19.72;100.00;101151.91;5033873;28;20158;-77
2021/09/12 05:06:13;;;;;;;17.57;11.37;;;;;;;19.79;100.00;101152.16;5033670;28;20166;-76
2021/09/12 05:08:38;;;;;;;25.33;11.93;;;;;;;19.91;100.00;101151.78;5025920;28;20478;-79
2021/09/12 05:11:03;;;;;;;23.43;13.13;;;;;;;19.87;100.00;101150.41;5040708;28;20192;-79
2021/09/12 05:13:30;;;;;;;22.53;12.87;;;;;;;19.86;100.00;101146.06;5033900;28;20241;-77
2021/09/12 05:15:55;;;;;;;22.83;15.40;;;;;;;19.84;100.00;101148.03;5032941;28;20174;-77
2021/09/12 05:18:21;;;;;;;20.97;14.53;;;;;;;19.81;100.00;101151.03;5032551;28;20459;-74
2021/09/12 05:20:48;;;;;;;23.60;14.90;;;;;;;19.82;100.00;101147.38;5032878;28;20166;-75
2021/09/12 05:23:14;;;;;;;23.83;16.10;;;;;;;19.78;100.00;101145.97;5033881;28;20665;-78
2021/09/12 05:25:40;;;;;;;23.43;16.90;;;;;;;19.97;100.00;101142.34;5032399;28;20413;-77
2021/09/12 05:28:05;;;;;;;30.23;17.93;;;;;;;20.09;100.00;101141.09;5037791;28;20948;-77
2021/09/12 05:30:31;;;;;;;29.10;17.87;;;;;;;20.16;100.00;101144.81;5034684;28;20844;-77
2021/09/12 05:32:56;;;;;;;27.77;19.60;;;;;;;20.23;100.00;101147.69;5033149;28;20169;-76
2021/09/12 05:35:22;;;;;;;25.13;18.20;;;;;;;20.15;100.00;101147.63;5033006;28;20174;-76
2021/09/12 05:37:48;;;;;;;29.77;19.60;;;;;;;20.06;100.00;101149.41;5034064;28;20169;-76
2021/09/12 05:40:14;;;;;;;34.17;25.10;;;;;;;19.95;100.00;101134.50;5033023;28;20158;-77
2021/09/12 05:42:41;;;;;;;32.77;24.67;;;;;;;19.89;100.00;101134.25;5032723;28;20474;-75
2021/09/12 05:45:08;;;;;;;31.27;24.17;;;;;;;19.87;100.00;101128.22;5032652;28;20276;-77
2021/09/12 05:47:34;;;;;;;35.50;24.17;;;;;;;19.94;100.00;101132.78;5032926;28;20974;-77
2021/09/12 05:50:00;;;;;;;31.00;22.63;;;;;;;20.07;100.00;101128.91;5032372;28;20416;-77
2021/09/12 05:52:26;;;;;;;29.40;22.13;;;;;;;20.18;100.00;101124.16;5027037;28;20460;-75
2021/09/12 05:54:51;;;;;;;30.90;20.73;;;;;;;20.31;100.00;101131.75;5027325;28;20412;-77
2021/09/12 05:57:17;;;;;;;30.83;18.80;;;;;;;20.34;100.00;101125.28;5027699;28;20188;-76
2021/09/12 05:59:43;;;;;;;25.77;17.77;;;;;;;20.27;100.00;101129.56;5024736;28;20190;-73
2021/09/12 06:02:09;;;;;;;21.03;15.30;;;;;;;20.28;100.00;101131.22;5024292;28;20208;-75
2021/09/12 06:04:34;;;;;;;18.90;14.93;;;;;;;20.25;100.00;101129.69;5028894;28;20423;-77
2021/09/12 06:07:00;;;;;;;25.80;18.70;;;;;;;20.30;100.00;101132.75;5031191;28;20618;-77
2021/09/12 06:09:26;;;;;;;26.93;19.43;;;;;;;20.35;100.00;101133.13;5024743;28;20615;-79
2021/09/12 06:11:51;;;;;;;31.03;19.47;;;;;;;20.39;100.00;101130.97;5031301;28;20459;-79
2021/09/12 06:14:18;;;;;;;29.13;18.60;;;;;;;20.48;100.00;101122.06;5025308;28;20162;-77
2021/09/12 06:16:44;;;;;;;28.80;19.37;;;;;;;20.60;100.00;101120.78;5026764;28;20162;-79
2021/09/12 06:19:10;;;;;;;26.70;19.37;;;;;;;20.70;100.00;101118.84;5032827;28;20448;-77
2021/09/12 06:21:35;;;;;;;28.13;21.47;;;;;;;20.76;100.00;101123.53;5029553;28;20209;-76
2021/09/12 06:24:01;;;;;;;28.50;18.00;;;;;;;20.81;100.00;101130.25;5032004;28;20447;-76
2021/09/12 06:26:27;;;;;;;29.20;19.13;;;;;;;20.90;100.00;101127.44;5031342;28;20237;-76
2021/09/12 06:28:52;;;;;;;23.63;16.20;;;;;;;21.07;100.00;101131.03;5023306;28;20224;-74
2021/09/12 06:31:18;;;;;;;22.50;16.00;;;;;;;21.25;100.00;101136.28;5028982;28;20420;-78
2021/09/12 06:33:44;;;;;;;24.43;16.70;;;;;;;21.30;100.00;101125.97;5028562;28;20162;-76
2021/09/12 06:36:09;;;;;;;18.47;14.50;;;;;;;21.38;100.00;101125.16;5029991;28;20481;-74
2021/09/12 06:38:35;;;;;;;16.70;14.00;;;;;;;21.48;100.00;101123.19;5021919;28;20670;-76
2021/09/12 06:41:01;;;;;;;19.83;13.00;;;;;;;21.68;100.00;101137.06;5029083;28;20170;-73
2021/09/12 06:43:27;;;;;;;17.37;13.70;;;;;;;21.80;100.00;101136.59;5031387;28;20205;-74
2021/09/12 06:45:53;;;;;;;31.67;13.90;;;;;;;21.79;100.00;101140.28;5029316;28;20440;-75
2021/09/12 06:48:18;;;;;;;23.13;12.23;;;;;;;22.02;100.00;101124.41;5029781;28;20544;-76
2021/09/12 06:50:44;;;;;;;18.93;11.30;;;;;;;22.07;100.00;101129.25;5031448;28;20153;-78
2021/09/12 06:53:09;;;;;;;20.73;11.30;;;;;;;22.14;100.00;101135.63;5028954;28;20623;-78
2021/09/12 06:55:35;;;;;;;17.20;11.40;;;;;;;22.16;100.00;101130.97;5033757;28;20172;-80
2021/09/12 06:58:00;;;;;;;25.43;11.60;;;;;;;22.25;100.00;101140.66;5021530;28;20192;-75
2021/09/12 07:00:26;;;;;;;21.53;10.23;;;;;;;22.45;100.00;101127.75;5027259;28;20683;-78
2021/09/12 07:02:53;;;;;;;14.23;11.10;;;;;;;22.46;100.00;101128.56;5023329;28;20580;-76
2021/09/12 07:05:19;;;;;;;18.67;10.93;;;;;;;22.59;100.00;101124.34;5027720;28;20177;-78
2021/09/12 07:07:44;;;;;;;17.20;12.10;;;;;;;22.73;100.00;101132.69;5028169;28;20468;-77
2021/09/12 07:10:10;;;;;;;22.77;11.23;;;;;;;22.77;100.00;101124.13;5025716;28;20172;-75
2021/09/12 07:12:35;;;;;;;22.73;12.20;;;;;;;22.84;100.00;101124.28;5029705;28;20605;-80
2021/09/12 07:15:01;;;;;;;15.40;11.13;;;;;;;22.96;100.00;101130.94;5024208;28;20169;-75
2021/09/12 07:17:28;;;;;;;16.80;11.50;;;;;;;23.09;100.00;101117.00;5029473;28;20304;-78
2021/09/12 07:19:54;;;;;;;16.10;11.70;;;;;;;23.16;100.00;101120.66;5020981;28;20690;-76
2021/09/12 07:22:20;;;;;;;16.27;10.40;;;;;;;23.25;100.00;101111.56;5030959;28;20440;-76
2021/09/12 07:24:45;;;;;;;15.33;10.37;;;;;;;23.30;100.00;101113.72;5030147;28;20773;-76
2021/09/12 07:27:11;;;;;;;16.57;10.40;;;;;;;23.32;100.00;101112.53;5029415;28;20163;-78
2021/09/12 07:29:36;;;;;;;19.23;10.70;;;;;;;23.34;100.00;101113.16;5022254;28;20225;-78
2021/09/12 07:32:02;;;;;;;16.80;11.60;;;;;;;23.41;100.00;101124.88;5008958;28;20665;-73
2021/09/12 07:34:28;;;;;;;24.67;10.30;;;;;;;23.58;100.00;101122.94;5018543;28;20313;-79
2021/09/12 07:36:53;;;;;;;17.73;10.87;;;;;;;23.56;100.00;101118.75;5029208;28;20245;-75
2021/09/12 07:39:19;;;;;;;15.03;10.60;;;;;;;23.62;100.00;101110.84;5024660;28;20286;-77
2021/09/12 07:41:44;;;;;;;17.63;11.27;;;;;;;23.78;100.00;101116.09;5027169;28;20269;-75
2021/09/12 07:44:10;;;;;;;15.77;10.83;;;;;;;23.84;100.00;101116.41;5022250;28;20154;-79
2021/09/12 07:46:35;;;;;;;17.90;10.83;;;;;;;23.92;100.00;101113.66;5026212;28;20625;-77
2021/09/12 07:49:01;;;;;;;15.87;11.40;;;;;;;24.05;100.00;101114.72;5029972;28;20168;-75
2021/09/12 07:51:26;;;;;;;19.13;11.90;;;;;;;24.22;100.00;101115.38;5028030;28;20731;-77
2021/09/12 07:53:52;;;;;;;18.80;10.60;;;;;;;24.30;100.00;101106.41;5028242;28;20201;-75
2021/09/12 07:56:17;;;;;;;17.80;11.30;;;;;;;24.46;100.00;101110.81;5029798;28;20531;-77
2021/09/12 07:58:43;;;;;;;16.10;11.80;;;;;;;24.41;100.00;101108.69;5020599;28;20209;-78
2021/09/12 08:01:09;;;;;;;20.80;11.57;;;;;;;24.43;100.00;101108.50;5023978;28;20154;-75
2021/09/12 08:03:35;;;;;;;14.90;9.80;;;;;;;24.45;98.17;101101.91;5020374;28;20638;-78
2021/09/12 08:06:00;;;;;;;13.93;10.83;;;;;;;24.51;99.06;101098.50;5027339;28;20934;-74
2021/09/12 08:08:26;;;;;;;26.67;12.60;;;;;;;24.69;97.06;101095.44;5025235;28;20227;-73
2021/09/12 08:10:51;;;;;;;12.30;9.97;;;;;;;24.78;95.12;101096.16;5023116;28;20706;-75
2021/09/12 08:13:17;;;;;;;16.17;10.87;;;;;;;24.83;94.90;101094.59;5031590;28;20180;-76
2021/09/12 08:15:42;;;;;;;15.23;11.10;;;;;;;24.95;92.49;101086.91;5028479;28;20165;-76
2021/09/12 08:18:08;;;;;;;17.27;11.30;;;;;;;25.10;93.76;101082.34;5036421;28;20201;-76
2021/09/12 08:20:33;;;;;;;17.43;10.90;;;;;;;25.25;88.82;101070.72;5040217;28;20177;-80
2021/09/12 08:22:59;;;;;;;17.73;10.47;;;;;;;25.24;89.34;101077.09;5032577;28;20162;-81
2021/09/12 08:25:24;;;;;;;21.80;10.90;;;;;;;25.38;89.09;101073.53;5034379;28;20643;-81
2021/09/12 08:27:50;;;;;;;19.40;10.77;;;;;;;25.53;87.03;101076.16;5034734;28;20200;-75
2021/09/12 08:30:16;;;;;;;25.17;10.70;;;;;;;25.61;88.50;101071.47;5032430;28;20201;-78
2021/09/12 08:32:42;;;;;;;12.93;9.97;;;;;;;25.64;84.86;101073.81;5009460;28;20633;-78
2021/09/12 08:35:09;;;;;;;23.30;11.03;;;;;;;25.77;84.80;101072.28;5033673;28;20427;-79
2021/09/12 08:37:34;;;;;;;15.30;10.67;;;;;;;25.91;86.26;101066.81;5029916;28;20404;-79
2021/09/12 08:40:01;;;;;;;24.67;11.90;;;;;;;26.09;91.52;101065.50;5033927;28;20452;-78
2021/09/12 08:42:27;;;;;;;17.03;11.30;;;;;;;26.24;91.70;101060.84;5033534;28;20158;-79
2021/09/12 08:44:53;;;;;;;21.47;11.27;;;;;;;26.42;96.78;101068.44;5027403;28;20479;-74
2021/09/12 08:47:19;;;;;;;15.27;11.60;;;;;;;26.47;100.00;101066.81;5027152;28;20642;-77
2021/09/12 08:49:46;;;;;;;17.17;11.37;;;;;;;26.54;100.00;101064.16;5028496;28;20619;-77
2021/09/12 08:52:13;;;;;;;18.63;11.67;;;;;;;26.65;100.00;101058.19;5043670;28;20436;-78
2021/09/12 08:54:40;;;;;;;12.97;10.27;;;;;;;26.62;100.00;101065.88;5033466;28;20419;-79
2021/09/12 08:57:06;;;;;;;17.83;10.20;;;;;;;26.49;100.00;101062.06;5033172;28;20409;-76
2021/09/12 08:59:35;;;;;;;15.97;10.27;;;;;;;26.67;100.00;101058.00;5034190;28;20459;-76
2021/09/12 09:02:04;;;;;;;16.13;11.13;;;;;;;26.83;100.00;101047.72;5029884;28;20455;-78
2021/09/12 09:04:36;;;;;;;21.50;11.53;;;;;;;26.97;100.00;101048.56;5027239;28;20409;-79
2021/09/12 09:07:06;;;;;;;20.43;11.20;;;;;;;27.10;100.00;101048.66;5027023;28;20405;-79
2021/09/12 09:09:39;;;;;;;25.93;10.33;;;;;;;26.87;100.00;101058.09;5031742;28;20401;-76
2021/09/12 09:12:31;;;;;;;15.77;10.57;;;;;;;26.65;100.00;101047.41;5032767;28;20417;-76
2021/09/12 09:15:14;;;;;;;16.83;9.53;;;;;;;26.63;100.00;101046.78;5033401;28;20413;-77
2021/09/12 09:17:48;;;;;;;18.33;10.17;;;;;;;26.88;100.00;101035.47;5032412;28;20405;-75
2021/09/12 09:20:20;;;;;;;17.20;10.27;;;;;;;26.90;100.00;101041.50;5032481;28;20458;-77
2021/09/12 09:22:49;;;;;;;19.23;10.30;;;;;;;26.83;100.00;101041.50;5030545;28;20881;-77
2021/09/12 09:25:20;;;;;;;15.23;10.27;;;;;;;26.99;100.00;101035.72;5026079;28;20427;-76
2021/09/12 09:28:02;;;;;;;14.67;10.17;;;;;;;27.23;100.00;101030.84;5028104;28;20416;-77
2021/09/12 09:30:53;;;;;;;18.50;10.30;;;;;;;27.22;100.00;101027.31;5026220;28;21037;-77
2021/09/12 09:33:22;;;;;;;15.33;10.20;;;;;;;27.22;100.00;101023.78;5025257;28;20432;-79
2021/09/12 09:35:55;;;;;;;13.50;10.23;;;;;;;27.22;100.00;101023.78;5030296;28;20443;-78
2021/09/12 09:38:24;;;;;;;13.83;9.83;;;;;;;27.65;100.00;101013.41;5032136;28;20456;-78
2021/09/12 09:41:00;;;;;;;17.73;11.63;;;;;;;27.79;100.00;101028.63;5032288;28;20574;-76
2021/09/12 09:43:44;;;;;;;21.20;11.13;;;;;;;27.59;100.00;101028.59;5019210;28;20484;-75
2021/09/12 09:46:41;;;;;;;16.23;10.50;;;;;;;27.44;100.00;101024.44;5030608;28;20416;-74
2021/09/12 09:49:24;;;;;;;19.17;11.20;;;;;;;27.00;100.00;101017.69;5029681;28;20435;-78
2021/09/12 09:51:54;;;;;;;12.87;10.50;;;;;;;27.25;100.00;101008.00;5031164;28;20419;-76
2021/09/12 09:54:22;;;;;;;17.70;11.07;;;;;;;27.71;100.00;101001.81;5029860;28;20455;-75
2021/09/12 09:56:49;;;;;;;12.27;9.83;;;;;;;28.16;91.54;101001.97;5029433;28;20482;-75
2021/09/12 09:59:17;;;;;;;19.13;10.73;;;;;;;28.43;93.14;100998.19;5031746;28;20450;-75
2021/09/12 10:01:44;;;;;;;21.70;14.70;;;;;;;28.34;88.32;100994.06;5036445;28;20417;-77
2021/09/12 10:04:14;;;;;;;14.23;10.20;;;;;;;28.75;84.81;100990.13;5030613;28;20440;-73
2021/09/12 10:06:41;;;;;;;16.43;11.50;;;;;;;29.12;81.48;100983.06;5031225;28;20423;-78
2021/09/12 10:09:10;;;;;;;18.13;9.40;;;;;;;29.36;78.87;100983.31;5031619;28;20483;-76
2021/09/12 10:11:36;;;;;;;16.47;10.10;;;;;;;29.61;78.25;100986.06;5030022;28;21260;-79
2021/09/12 10:14:03;;;;;;;17.97;10.33;;;;;;;29.76;82.12;100986.53;5026156;28;20503;-74
2021/09/12 10:16:31;;;;;;;13.87;10.30;;;;;;;29.74;80.23;100983.22;5027399;28;20265;-74
2021/09/12 10:18:57;;;;;;;16.80;10.37;;;;;;;30.05;76.09;100972.28;5026809;28;20459;-76
2021/09/12 10:21:25;;;;;;;14.70;10.00;;;;;;;30.37;76.02;100964.81;5027423;28;20413;-77
2021/09/12 10:24:02;;;;;;;13.63;11.03;;;;;;;30.76;72.52;100961.84;5035979;28;20176;-77
2021/09/12 10:26:33;;;;;;;10.80;9.10;;;;;;;31.02;65.17;100963.38;5022153;28;20400;-78
2021/09/12 10:28:59;;;;;;;24.07;21.53;;;;;;;31.16;63.30;100954.78;5030630;28;21039;-76
2021/09/12 10:31:27;;;;;;;17.40;11.33;;;;;;;31.48;61.98;100966.19;5029259;28;20409;-76
2021/09/12 10:34:22;;;;;;;20.10;11.53;;;;;;;31.08;61.24;100967.88;5043082;28;20225;-77
2021/09/12 10:36:48;;;;;;;21.90;11.60;;;;;;;30.85;60.79;100963.19;5022600;28;20927;-76
2021/09/12 10:39:23;;;;;;;15.80;11.07;;;;;;;30.50;63.22;100963.00;5037254;28;20466;-77
2021/09/12 10:42:09;;;;;;;14.13;9.90;;;;;;;30.38;66.77;100966.50;5034682;28;20404;-76
2021/09/12 10:44:35;;;;;;;16.30;10.50;;;;;;;30.66;65.00;100960.53;5027899;28;20507;-74
2021/09/12 10:47:08;;;;;;;18.00;11.50;;;;;;;30.34;64.07;100962.59;5035452;28;20932;-75
2021/09/12 10:49:33;;;;;;;22.03;10.67;;;;;;;31.13;63.20;100951.69;5029615;28;20443;-75
2021/09/12 10:51:59;;;;;;;15.03;10.87;;;;;;;32.69;60.01;100946.50;5027295;28;20440;-76
2021/09/12 10:54:24;;;;;;;12.23;10.07;;;;;;;34.69;52.51;100936.44;5026621;28;20201;-76
2021/09/12 10:57:07;;;;;;;13.23;10.00;;;;;;;35.96;49.01;100947.56;5028606;28;20759;-75
2021/09/12 10:59:33;;;;;;;14.80;9.90;;;;;;;37.46;45.12;100935.56;5028659;28;20251;-73
2021/09/12 11:01:59;;;;;;;14.07;9.87;;;;;;;38.44;44.79;100938.81;5026042;28;20517;-73
2021/09/12 11:04:32;;;;;;;15.13;10.43;;;;;;;38.96;43.08;100929.13;5028642;28;20428;-76